createdAt,value
2016-12-25T00:00:55.760Z,0
2016-12-25T00:02:01.931Z,0
2016-12-25T00:03:06.865Z,0
2016-12-25T00:04:11.814Z,0
2016-12-25T00:05:15.151Z,0
2016-12-25T00:06:32.125Z,0
2016-12-25T00:07:43.605Z,0
2016-12-25T00:08:49.772Z,0
2016-12-25T00:09:54.062Z,0
2016-12-25T00:10:59.275Z,0
2016-12-25T00:12:04.472Z,0
2016-12-25T00:13:09.671Z,0
2016-12-25T00:14:15.843Z,0
2016-12-25T00:15:22.209Z,0
2016-12-25T00:16:28.370Z,0
2016-12-25T00:17:34.564Z,0
2016-12-25T00:18:39.784Z,0
2016-12-25T00:19:44.993Z,0
2016-12-25T00:20:51.215Z,0
2016-12-25T00:21:55.445Z,0
2016-12-25T00:22:59.675Z,0
2016-12-25T00:24:05.840Z,0
2016-12-25T00:25:12.012Z,0
2016-12-25T00:26:16.221Z,0
2016-12-25T00:27:22.438Z,0
2016-12-25T00:28:27.604Z,0
2016-12-25T00:29:32.822Z,0
2016-12-25T00:30:39.073Z,0
2016-12-25T00:31:43.306Z,0
2016-12-25T00:32:47.539Z,0
2016-12-25T00:33:53.802Z,0
2016-12-25T00:34:59.923Z,0
2016-12-25T00:36:06.096Z,0
2016-12-25T00:37:10.302Z,0
2016-12-25T00:38:15.499Z,0
2016-12-25T00:39:21.717Z,0
2016-12-25T00:40:26.918Z,0
2016-12-25T00:41:39.369Z,0
2016-12-25T00:42:45.541Z,0
2016-12-25T00:43:50.709Z,0
2016-12-25T00:44:56.862Z,0
2016-12-25T00:46:02.041Z,0
2016-12-25T00:47:08.203Z,0
2016-12-25T00:48:14.367Z,0
2016-12-25T00:49:32.307Z,0
2016-12-25T00:50:36.543Z,0
2016-12-25T00:51:41.744Z,0
2016-12-25T00:52:46.939Z,0
2016-12-25T00:53:53.110Z,0
2016-12-25T00:54:58.293Z,0
2016-12-25T00:56:04.464Z,0
2016-12-25T00:57:11.847Z,0
2016-12-25T00:58:30.746Z,0
2016-12-25T00:59:35.944Z,0
2016-12-25T01:00:42.561Z,0
2016-12-25T01:01:47.769Z,0
2016-12-25T01:02:51.002Z,0
2016-12-25T01:03:56.200Z,0
2016-12-25T01:05:01.431Z,0
2016-12-25T01:06:06.629Z,0
2016-12-25T01:07:12.797Z,0
2016-12-25T01:08:17.963Z,0
2016-12-25T01:09:22.194Z,0
2016-12-25T01:10:28.358Z,0
2016-12-25T01:11:33.562Z,0
2016-12-25T01:12:38.739Z,0
2016-12-25T01:13:42.989Z,0
2016-12-25T01:14:48.198Z,0
2016-12-25T01:15:54.378Z,0
2016-12-25T01:16:58.590Z,0
2016-12-25T01:18:04.774Z,0
2016-12-25T01:19:11.018Z,0
2016-12-25T01:20:17.247Z,0
2016-12-25T01:21:28.853Z,0
2016-12-25T01:22:33.091Z,0
2016-12-25T01:23:39.254Z,0
2016-12-25T01:24:45.426Z,0
2016-12-25T01:25:50.628Z,0
2016-12-25T01:26:55.861Z,0
2016-12-25T01:28:01.060Z,0
2016-12-25T01:29:07.204Z,0
2016-12-25T01:30:12.405Z,0
2016-12-25T01:31:17.579Z,0
2016-12-25T01:33:06.300Z,0
2016-12-25T01:34:11.103Z,0
2016-12-25T01:35:22.689Z,0
2016-12-25T01:36:27.883Z,0
2016-12-25T01:37:34.052Z,0
2016-12-25T01:38:40.218Z,0
2016-12-25T01:39:45.423Z,0
2016-12-25T01:40:51.618Z,0
2016-12-25T01:41:56.825Z,0
2016-12-25T01:43:02.038Z,0
2016-12-25T01:44:07.245Z,0
2016-12-25T01:45:13.405Z,0
2016-12-25T01:46:18.584Z,0
2016-12-25T01:47:24.756Z,0
2016-12-25T01:48:28.958Z,0
2016-12-25T01:49:35.124Z,0
2016-12-25T01:50:40.330Z,0
2016-12-25T01:51:46.506Z,0
2016-12-25T01:53:20.105Z,0
2016-12-25T01:54:25.508Z,0
2016-12-25T01:55:46.476Z,0
2016-12-25T01:56:51.781Z,0
2016-12-25T01:57:57.951Z,0
2016-12-25T01:59:03.155Z,0
2016-12-25T02:00:07.387Z,0
2016-12-25T02:01:13.557Z,0
2016-12-25T02:02:22.752Z,0
2016-12-25T02:03:27.095Z,0
2016-12-25T02:04:33.269Z,0
2016-12-25T02:05:39.524Z,0
2016-12-25T02:06:44.702Z,0
2016-12-25T02:07:50.864Z,0
2016-12-25T02:09:09.774Z,0
2016-12-25T02:10:27.709Z,0
2016-12-25T02:11:33.880Z,0
2016-12-25T02:12:39.298Z,0
2016-12-25T02:13:44.467Z,0
2016-12-25T02:15:02.406Z,0
2016-12-25T02:16:08.560Z,0
2016-12-25T02:17:12.791Z,0
2016-12-25T02:18:18.962Z,0
2016-12-25T02:19:25.140Z,0
2016-12-25T02:20:30.538Z,0
2016-12-25T02:21:36.712Z,0
2016-12-25T02:22:43.001Z,0
2016-12-25T02:23:48.281Z,0
2016-12-25T02:24:53.479Z,0
2016-12-25T02:25:57.737Z,0
2016-12-25T02:27:02.944Z,0
2016-12-25T02:28:07.155Z,0
2016-12-25T02:29:18.608Z,0
2016-12-25T02:30:24.774Z,0
2016-12-25T02:31:31.045Z,0
2016-12-25T02:32:37.225Z,0
2016-12-25T02:33:43.404Z,0
2016-12-25T02:34:47.652Z,0
2016-12-25T02:35:53.854Z,0
2016-12-25T02:37:00.096Z,0
2016-12-25T02:38:06.261Z,0
2016-12-25T02:39:10.491Z,0
2016-12-25T02:40:16.688Z,0
2016-12-25T02:41:21.901Z,0
2016-12-25T02:42:27.091Z,0
2016-12-25T02:43:33.265Z,0
2016-12-25T02:44:39.431Z,0
2016-12-25T02:45:43.663Z,0
2016-12-25T02:46:49.841Z,0
2016-12-25T02:47:57.213Z,0
2016-12-25T02:49:04.825Z,0
2016-12-25T02:50:17.234Z,0
2016-12-25T02:51:27.704Z,0
2016-12-25T02:52:33.907Z,0
2016-12-25T02:53:40.047Z,0
2016-12-25T02:54:46.221Z,0
2016-12-25T02:55:52.383Z,0
2016-12-25T02:58:02.764Z,0
2016-12-25T02:59:09.155Z,0
2016-12-25T03:00:12.389Z,0
2016-12-25T03:01:18.621Z,0
2016-12-25T03:02:21.880Z,0
2016-12-25T03:03:27.090Z,0
2016-12-25T03:04:32.300Z,0
2016-12-25T03:05:38.470Z,0
2016-12-25T03:06:43.665Z,0
2016-12-25T03:07:48.865Z,0
2016-12-25T03:08:55.054Z,0
2016-12-25T03:10:01.306Z,0
2016-12-25T03:11:06.502Z,0
2016-12-25T03:12:11.736Z,0
2016-12-25T03:13:16.912Z,0
2016-12-25T03:14:23.111Z,0
2016-12-25T03:15:27.310Z,0
2016-12-25T03:16:31.516Z,0
2016-12-25T03:17:37.723Z,0
2016-12-25T03:18:40.958Z,0
2016-12-25T03:19:46.157Z,0
2016-12-25T03:20:51.361Z,0
2016-12-25T03:21:57.533Z,0
2016-12-25T03:23:03.697Z,0
2016-12-25T03:24:08.904Z,0
2016-12-25T03:25:13.134Z,0
2016-12-25T03:26:16.401Z,0
2016-12-25T03:27:21.599Z,0
2016-12-25T03:28:26.802Z,0
2016-12-25T03:29:32.004Z,0
2016-12-25T03:30:36.294Z,0
2016-12-25T03:31:42.463Z,0
2016-12-25T03:32:49.889Z,0
2016-12-25T03:33:56.056Z,0
2016-12-25T03:35:00.286Z,0
2016-12-25T03:36:05.486Z,0
2016-12-25T03:37:10.693Z,0
2016-12-25T03:38:15.899Z,0
2016-12-25T03:39:22.093Z,0
2016-12-25T03:40:26.296Z,0
2016-12-25T03:41:31.476Z,0
2016-12-25T03:42:35.672Z,0
2016-12-25T03:43:39.897Z,0
2016-12-25T03:44:44.138Z,0
2016-12-25T03:45:48.347Z,0
2016-12-25T03:46:53.551Z,0
2016-12-25T03:47:59.718Z,0
2016-12-25T03:49:05.879Z,0
2016-12-25T03:50:15.141Z,0
2016-12-25T03:51:21.303Z,0
2016-12-25T03:52:26.508Z,0
2016-12-25T03:53:29.853Z,0
2016-12-25T03:54:35.041Z,0
2016-12-25T03:55:41.212Z,0
2016-12-25T03:56:46.375Z,0
2016-12-25T03:57:51.576Z,0
2016-12-25T03:58:57.807Z,0
2016-12-25T04:00:02.975Z,0
2016-12-25T04:01:07.181Z,0
2016-12-25T04:02:13.352Z,0
2016-12-25T04:03:19.535Z,0
2016-12-25T04:04:24.802Z,0
2016-12-25T04:05:29.061Z,0
2016-12-25T04:07:38.595Z,0
2016-12-25T04:08:44.767Z,0
2016-12-25T04:09:52.366Z,0
2016-12-25T04:10:55.752Z,0
2016-12-25T04:11:59.982Z,0
2016-12-25T04:13:06.169Z,0
2016-12-25T04:14:11.411Z,0
2016-12-25T04:15:16.613Z,0
2016-12-25T04:16:20.846Z,0
2016-12-25T04:17:27.024Z,0
2016-12-25T04:18:33.198Z,0
2016-12-25T04:19:39.369Z,0
2016-12-25T04:20:43.669Z,0
2016-12-25T04:21:48.841Z,0
2016-12-25T04:22:54.012Z,0
2016-12-25T04:24:00.245Z,0
2016-12-25T04:25:06.352Z,0
2016-12-25T04:26:09.593Z,0
2016-12-25T04:27:14.824Z,0
2016-12-25T04:28:18.058Z,0
2016-12-25T04:29:23.264Z,0
2016-12-25T04:30:29.477Z,0
2016-12-25T04:31:33.677Z,0
2016-12-25T04:32:39.842Z,0
2016-12-25T04:33:45.040Z,0
2016-12-25T04:34:51.264Z,0
2016-12-25T04:35:57.461Z,0
2016-12-25T04:37:02.626Z,0
2016-12-25T04:38:08.793Z,0
2016-12-25T04:39:13.965Z,0
2016-12-25T04:40:20.132Z,0
2016-12-25T04:41:25.335Z,0
2016-12-25T04:42:31.549Z,0
2016-12-25T04:43:39.017Z,0
2016-12-25T04:44:44.227Z,0
2016-12-25T04:45:50.398Z,0
2016-12-25T04:46:56.562Z,0
2016-12-25T04:48:02.836Z,0
2016-12-25T04:49:09.003Z,0
2016-12-25T04:50:14.197Z,0
2016-12-25T04:51:18.411Z,0
2016-12-25T04:52:22.618Z,0
2016-12-25T04:53:28.785Z,0
2016-12-25T04:54:34.954Z,0
2016-12-25T04:55:39.153Z,0
2016-12-25T04:56:44.358Z,0
2016-12-25T04:57:50.527Z,0
2016-12-25T04:58:54.760Z,0
2016-12-25T05:00:00.930Z,0
2016-12-25T05:01:04.163Z,0
2016-12-25T05:02:10.532Z,0
2016-12-25T05:03:15.729Z,0
2016-12-25T05:04:20.994Z,0
2016-12-25T05:05:26.405Z,0
2016-12-25T05:06:32.540Z,0
2016-12-25T05:07:38.703Z,0
2016-12-25T05:08:51.140Z,0
2016-12-25T05:10:02.607Z,0
2016-12-25T05:11:05.898Z,0
2016-12-25T05:12:10.115Z,0
2016-12-25T05:13:16.331Z,0
2016-12-25T05:14:21.535Z,0
2016-12-25T05:15:27.702Z,0
2016-12-25T05:16:33.939Z,0
2016-12-25T05:17:45.472Z,0
2016-12-25T05:18:50.646Z,0
2016-12-25T05:19:55.847Z,0
2016-12-25T05:21:00.073Z,0
2016-12-25T05:22:11.513Z,0
2016-12-25T05:23:17.681Z,0
2016-12-25T05:24:23.847Z,0
2016-12-25T05:25:29.040Z,0
2016-12-25T05:26:34.242Z,0
2016-12-25T05:27:38.471Z,0
2016-12-25T05:28:44.643Z,0
2016-12-25T05:29:48.855Z,0
2016-12-25T05:30:54.050Z,0
2016-12-25T05:31:59.250Z,0
2016-12-25T05:33:04.425Z,0
2016-12-25T05:34:21.397Z,0
2016-12-25T05:35:27.573Z,0
2016-12-25T05:36:32.778Z,0
2016-12-25T05:37:38.014Z,0
2016-12-25T05:38:44.185Z,0
2016-12-25T05:39:49.426Z,0
2016-12-25T05:40:56.739Z,0
2016-12-25T05:42:01.689Z,0
2016-12-25T05:43:06.947Z,0
2016-12-25T05:44:11.411Z,0
2016-12-25T05:45:15.640Z,0
2016-12-25T05:46:19.864Z,0
2016-12-25T05:47:26.482Z,0
2016-12-25T05:48:30.814Z,0
2016-12-25T05:49:36.049Z,0
2016-12-25T05:50:40.270Z,0
2016-12-25T05:51:44.539Z,0
2016-12-25T05:52:49.820Z,0
2016-12-25T05:53:54.027Z,0
2016-12-25T05:55:00.200Z,0
2016-12-25T05:56:06.368Z,0
2016-12-25T05:57:09.676Z,0
2016-12-25T05:58:15.897Z,0
2016-12-25T05:59:20.125Z,0
2016-12-25T06:00:26.292Z,0
2016-12-25T06:01:31.497Z,0
2016-12-25T06:02:36.671Z,0
2016-12-25T06:03:42.831Z,0
2016-12-25T06:04:48.999Z,0
2016-12-25T06:05:55.167Z,0
2016-12-25T06:07:00.368Z,0
2016-12-25T06:08:06.537Z,0
2016-12-25T06:09:12.755Z,0
2016-12-25T06:10:16.963Z,0
2016-12-25T06:11:26.169Z,0
2016-12-25T06:12:31.358Z,0
2016-12-25T06:13:36.563Z,0
2016-12-25T06:14:40.797Z,0
2016-12-25T06:15:46.960Z,0
2016-12-25T06:16:52.162Z,0
2016-12-25T06:17:57.374Z,0
2016-12-25T06:19:01.776Z,0
2016-12-25T06:20:07.234Z,0
2016-12-25T06:21:13.413Z,0
2016-12-25T06:22:19.637Z,0
2016-12-25T06:23:22.917Z,0
2016-12-25T06:24:28.212Z,0
2016-12-25T06:25:34.373Z,0
2016-12-25T06:26:40.551Z,0
2016-12-25T06:27:46.727Z,0
2016-12-25T06:28:57.256Z,0
2016-12-25T06:30:02.430Z,0
2016-12-25T06:31:07.717Z,0
2016-12-25T06:32:10.957Z,0
2016-12-25T06:33:16.837Z,0
2016-12-25T06:34:28.302Z,0
2016-12-25T06:35:32.518Z,0
2016-12-25T06:36:35.760Z,0
2016-12-25T06:37:40.011Z,0
2016-12-25T06:38:45.204Z,0
2016-12-25T06:39:50.401Z,0
2016-12-25T06:40:59.605Z,0
2016-12-25T06:42:04.839Z,0
2016-12-25T06:43:11.010Z,0
2016-12-25T06:44:16.204Z,0
2016-12-25T06:45:19.443Z,0
2016-12-25T06:46:25.631Z,0
2016-12-25T06:47:43.554Z,0
2016-12-25T06:48:48.759Z,0
2016-12-25T06:49:53.961Z,0
2016-12-25T06:50:59.173Z,0
2016-12-25T06:52:04.378Z,0
2016-12-25T06:53:15.853Z,0
2016-12-25T06:54:21.061Z,0
2016-12-25T06:55:24.352Z,0
2016-12-25T06:56:30.515Z,0
2016-12-25T06:57:36.688Z,0
2016-12-25T06:58:42.927Z,0
2016-12-25T06:59:48.118Z,0
2016-12-25T07:00:53.326Z,0
2016-12-25T07:01:59.502Z,0
2016-12-25T07:03:04.675Z,0
2016-12-25T07:04:09.869Z,0
2016-12-25T07:05:14.072Z,0
2016-12-25T07:06:20.241Z,0
2016-12-25T07:07:25.435Z,0
2016-12-25T07:08:30.639Z,0
2016-12-25T07:09:34.884Z,0
2016-12-25T07:10:40.054Z,0
2016-12-25T07:11:46.323Z,0
2016-12-25T07:12:52.487Z,0
2016-12-25T07:13:58.662Z,0
2016-12-25T07:15:01.924Z,0
2016-12-25T07:16:07.123Z,0
2016-12-25T07:17:12.683Z,0
2016-12-25T07:18:17.968Z,0
2016-12-25T07:19:22.102Z,0
2016-12-25T07:20:28.282Z,0
2016-12-25T07:21:33.479Z,0
2016-12-25T07:22:39.656Z,0
2016-12-25T07:23:44.852Z,0
2016-12-25T07:24:49.132Z,0
2016-12-25T07:26:01.563Z,0
2016-12-25T07:27:13.064Z,0
2016-12-25T07:28:19.234Z,0
2016-12-25T07:29:25.608Z,0
2016-12-25T07:30:31.780Z,0
2016-12-25T07:31:35.995Z,0
2016-12-25T07:32:41.222Z,0
2016-12-25T07:33:46.444Z,0
2016-12-25T07:34:49.740Z,0
2016-12-25T07:35:55.915Z,0
2016-12-25T07:37:01.123Z,0
2016-12-25T07:38:05.333Z,0
2016-12-25T07:39:11.515Z,0
2016-12-25T07:40:17.675Z,0
2016-12-25T07:41:22.851Z,0
2016-12-25T07:42:28.020Z,0
2016-12-25T07:43:34.197Z,0
2016-12-25T07:44:39.370Z,0
2016-12-25T07:45:44.635Z,0
2016-12-25T07:46:56.105Z,0
2016-12-25T07:48:00.460Z,0
2016-12-25T07:49:05.656Z,0
2016-12-25T07:50:18.087Z,0
2016-12-25T07:51:23.290Z,0
2016-12-25T07:52:28.493Z,0
2016-12-25T07:53:34.666Z,0
2016-12-25T07:54:40.827Z,0
2016-12-25T07:55:45.047Z,0
2016-12-25T07:56:50.361Z,0
2016-12-25T07:57:55.628Z,5
2016-12-25T07:59:01.764Z,5
2016-12-25T08:00:07.931Z,5
2016-12-25T08:01:14.154Z,5
2016-12-25T08:02:19.352Z,5
2016-12-25T08:03:24.524Z,5
2016-12-25T08:04:30.693Z,5
2016-12-25T08:05:34.018Z,5
2016-12-25T08:06:40.189Z,5
2016-12-25T08:07:46.352Z,10
2016-12-25T08:09:17.205Z,5
2016-12-25T08:10:22.405Z,5
2016-12-25T08:11:27.605Z,5
2016-12-25T08:12:32.809Z,5
2016-12-25T08:13:40.191Z,10
2016-12-25T08:14:45.391Z,10
2016-12-25T08:15:50.596Z,10
2016-12-25T08:16:56.765Z,10
2016-12-25T08:18:01.976Z,15
2016-12-25T08:19:21.976Z,15
2016-12-25T08:20:26.197Z,20
2016-12-25T08:21:32.360Z,25
2016-12-25T08:22:36.926Z,25
2016-12-25T08:23:42.093Z,30
2016-12-25T08:24:48.494Z,25
2016-12-25T08:26:06.436Z,30
2016-12-25T08:27:11.697Z,35
2016-12-25T08:28:14.895Z,30
2016-12-25T08:29:20.099Z,30
2016-12-25T08:30:24.301Z,25
2016-12-25T08:31:34.772Z,25
2016-12-25T08:32:39.005Z,25
2016-12-25T08:33:45.223Z,25
2016-12-25T08:34:50.428Z,30
2016-12-25T08:35:56.621Z,25
2016-12-25T08:37:01.840Z,30
2016-12-25T08:38:07.994Z,25
2016-12-25T08:39:13.200Z,25
2016-12-25T08:40:18.404Z,25
2016-12-25T08:41:24.569Z,25
2016-12-25T08:42:30.981Z,30
2016-12-25T08:43:36.226Z,30
2016-12-25T08:44:42.400Z,35
2016-12-25T08:45:47.599Z,35
2016-12-25T08:46:53.761Z,30
2016-12-25T08:48:01.128Z,30
2016-12-25T08:49:07.294Z,25
2016-12-25T08:50:10.584Z,25
2016-12-25T08:51:16.069Z,25
2016-12-25T08:52:21.272Z,25
2016-12-25T08:53:27.443Z,25
2016-12-25T08:54:33.661Z,30
2016-12-25T08:55:38.836Z,30
2016-12-25T08:56:45.015Z,35
2016-12-25T08:57:50.335Z,30
2016-12-25T08:58:55.538Z,35
2016-12-25T09:00:00.740Z,35
2016-12-25T09:01:05.942Z,35
2016-12-25T09:02:11.155Z,30
2016-12-25T09:03:15.363Z,35
2016-12-25T09:04:20.564Z,50
2016-12-25T09:05:25.772Z,40
2016-12-25T09:06:30.971Z,55
2016-12-25T09:07:35.177Z,50
2016-12-25T09:08:54.188Z,55
2016-12-25T09:09:58.634Z,65
2016-12-25T09:11:02.847Z,45
2016-12-25T09:12:08.116Z,55
2016-12-25T09:13:13.332Z,80
2016-12-25T09:14:20.684Z,85
2016-12-25T09:15:25.883Z,90
2016-12-25T09:16:32.043Z,65
2016-12-25T09:17:38.219Z,90
2016-12-25T09:18:43.422Z,90
2016-12-25T09:19:49.592Z,90
2016-12-25T09:20:55.758Z,120
2016-12-25T09:22:02.421Z,115
2016-12-25T09:23:08.539Z,115
2016-12-25T09:24:14.717Z,125
2016-12-25T09:25:17.988Z,80
2016-12-25T09:26:47.891Z,65
2016-12-25T09:27:53.082Z,65
2016-12-25T09:28:59.331Z,60
2016-12-25T09:30:05.499Z,65
2016-12-25T09:31:36.352Z,65
2016-12-25T09:33:27.617Z,65
2016-12-25T09:34:32.826Z,50
2016-12-25T09:35:37.580Z,55
2016-12-25T09:36:42.780Z,50
2016-12-25T09:37:47.013Z,45
2016-12-25T09:38:53.195Z,40
2016-12-25T09:39:59.372Z,40
2016-12-25T09:41:11.801Z,45
2016-12-25T09:42:18.183Z,45
2016-12-25T09:43:22.438Z,50
2016-12-25T09:44:30.669Z,40
2016-12-25T09:45:43.107Z,50
2016-12-25T09:46:48.396Z,45
2016-12-25T09:47:53.680Z,50
2016-12-25T09:49:12.592Z,55
2016-12-25T09:50:18.770Z,40
2016-12-25T09:51:24.943Z,35
2016-12-25T09:52:30.140Z,30
2016-12-25T09:53:36.307Z,45
2016-12-25T09:54:42.520Z,35
2016-12-25T09:55:45.933Z,35
2016-12-25T09:56:53.520Z,40
2016-12-25T09:57:58.933Z,55
2016-12-25T09:59:04.131Z,55
2016-12-25T10:00:09.333Z,45
2016-12-25T10:01:14.506Z,60
2016-12-25T10:02:30.512Z,55
2016-12-25T10:03:34.768Z,55
2016-12-25T10:04:38.981Z,50
2016-12-25T10:05:51.419Z,55
2016-12-25T10:06:55.622Z,60
2016-12-25T10:08:00.793Z,60
2016-12-25T10:09:07.025Z,65
2016-12-25T10:10:13.202Z,55
2016-12-25T10:11:16.467Z,45
2016-12-25T10:12:21.667Z,50
2016-12-25T10:13:27.838Z,45
2016-12-25T10:14:31.086Z,50
2016-12-25T10:15:34.349Z,45
2016-12-25T10:16:38.668Z,55
2016-12-25T10:17:44.838Z,45
2016-12-25T10:18:51.008Z,50
2016-12-25T10:19:56.203Z,40
2016-12-25T10:21:01.405Z,40
2016-12-25T10:22:06.609Z,50
2016-12-25T10:23:11.795Z,50
2016-12-25T10:24:16.017Z,60
2016-12-25T10:25:21.231Z,55
2016-12-25T10:26:26.438Z,65
2016-12-25T10:27:32.614Z,80
2016-12-25T10:28:38.780Z,70
2016-12-25T10:29:44.950Z,60
2016-12-25T10:30:50.187Z,75
2016-12-25T10:31:56.361Z,75
2016-12-25T10:32:59.730Z,80
2016-12-25T10:34:03.972Z,75
2016-12-25T10:35:09.149Z,75
2016-12-25T10:36:15.322Z,75
2016-12-25T10:37:18.611Z,70
2016-12-25T10:38:23.806Z,75
2016-12-25T10:39:28.007Z,75
2016-12-25T10:40:32.245Z,70
2016-12-25T10:41:38.414Z,75
2016-12-25T10:42:44.588Z,75
2016-12-25T10:43:53.797Z,70
2016-12-25T10:45:00.111Z,65
2016-12-25T10:46:05.950Z,60
2016-12-25T10:47:11.147Z,60
2016-12-25T10:48:16.343Z,50
2016-12-25T10:49:21.541Z,55
2016-12-25T10:50:25.781Z,50
2016-12-25T10:51:31.948Z,60
2016-12-25T10:52:38.121Z,50
2016-12-25T10:53:44.300Z,50
2016-12-25T10:54:47.562Z,45
2016-12-25T10:55:52.756Z,60
2016-12-25T10:56:58.929Z,60
2016-12-25T10:58:03.161Z,65
2016-12-25T10:59:08.361Z,70
2016-12-25T11:00:12.671Z,80
2016-12-25T11:01:17.874Z,90
2016-12-25T11:02:24.043Z,95
2016-12-25T11:03:30.214Z,80
2016-12-25T11:04:34.483Z,80
2016-12-25T11:05:40.621Z,85
2016-12-25T11:06:46.784Z,85
2016-12-25T11:07:52.955Z,95
2016-12-25T11:08:59.124Z,95
2016-12-25T11:10:04.334Z,80
2016-12-25T11:11:06.609Z,85
2016-12-25T11:12:11.776Z,90
2016-12-25T11:13:16.986Z,85
2016-12-25T11:14:23.160Z,80
2016-12-25T11:15:28.469Z,75
2016-12-25T11:16:34.645Z,85
2016-12-25T11:17:39.833Z,75
2016-12-25T11:18:46.005Z,75
2016-12-25T11:19:50.206Z,70
2016-12-25T11:20:58.457Z,70
2016-12-25T11:22:05.824Z,70
2016-12-25T11:23:11.986Z,80
2016-12-25T11:24:18.167Z,75
2016-12-25T11:25:23.376Z,80
2016-12-25T11:26:29.545Z,80
2016-12-25T11:27:34.751Z,80
2016-12-25T11:28:40.920Z,75
2016-12-25T11:29:46.174Z,70
2016-12-25T11:30:52.403Z,90
2016-12-25T11:31:57.568Z,85
2016-12-25T11:33:03.743Z,95
2016-12-25T11:34:09.915Z,90
2016-12-25T11:35:14.108Z,70
2016-12-25T11:36:20.275Z,70
2016-12-25T11:37:26.457Z,60
2016-12-25T11:38:31.651Z,50
2016-12-25T11:39:36.841Z,55
2016-12-25T11:40:43.012Z,65
2016-12-25T11:41:48.234Z,55
2016-12-25T11:42:54.435Z,70
2016-12-25T11:43:58.628Z,65
2016-12-25T11:45:02.864Z,60
2016-12-25T11:46:28.203Z,55
2016-12-25T11:47:33.391Z,55
2016-12-25T11:48:37.630Z,60
2016-12-25T11:49:42.906Z,60
2016-12-25T11:50:49.075Z,60
2016-12-25T11:51:54.261Z,60
2016-12-25T11:53:00.431Z,65
2016-12-25T11:54:04.673Z,50
2016-12-25T11:55:09.967Z,70
2016-12-25T11:56:14.103Z,70
2016-12-25T11:57:20.276Z,70
2016-12-25T11:58:24.480Z,60
2016-12-25T11:59:30.640Z,65
2016-12-25T12:00:35.855Z,70
2016-12-25T12:02:48.265Z,75
2016-12-25T12:03:52.522Z,65
2016-12-25T12:04:57.706Z,70
2016-12-25T12:06:03.883Z,70
2016-12-25T12:07:09.079Z,70
2016-12-25T12:08:13.281Z,65
2016-12-25T12:09:18.601Z,60
2016-12-25T12:10:23.830Z,65
2016-12-25T12:11:29.971Z,50
2016-12-25T12:12:35.172Z,45
2016-12-25T12:13:38.550Z,40
2016-12-25T12:14:44.718Z,50
2016-12-25T12:15:48.916Z,50
2016-12-25T12:16:55.081Z,45
2016-12-25T12:18:00.287Z,50
2016-12-25T12:19:06.264Z,50
2016-12-25T12:20:12.431Z,45
2016-12-25T12:21:18.573Z,45
2016-12-25T12:22:24.745Z,50
2016-12-25T12:23:31.036Z,45
2016-12-25T12:24:37.209Z,45
2016-12-25T12:25:43.434Z,45
2016-12-25T12:26:46.664Z,45
2016-12-25T12:27:51.904Z,45
2016-12-25T12:28:58.051Z,50
2016-12-25T12:30:01.293Z,50
2016-12-25T12:31:07.460Z,55
2016-12-25T12:32:13.646Z,55
2016-12-25T12:33:19.811Z,50
2016-12-25T12:34:25.013Z,45
2016-12-25T12:35:30.222Z,55
2016-12-25T12:36:36.391Z,45
2016-12-25T12:37:42.555Z,45
2016-12-25T12:38:47.758Z,50
2016-12-25T12:39:53.929Z,45
2016-12-25T12:41:11.874Z,55
2016-12-25T12:42:17.063Z,45
2016-12-25T12:43:22.283Z,55
2016-12-25T12:44:27.484Z,50
2016-12-25T12:45:31.715Z,40
2016-12-25T12:46:37.883Z,45
2016-12-25T12:47:43.086Z,45
2016-12-25T12:48:48.263Z,45
2016-12-25T12:49:54.446Z,50
2016-12-25T12:51:00.623Z,50
2016-12-25T12:52:06.796Z,55
2016-12-25T12:53:12.974Z,55
2016-12-25T12:54:19.140Z,60
2016-12-25T12:55:25.351Z,50
2016-12-25T12:56:31.494Z,50
2016-12-25T12:57:37.706Z,50
2016-12-25T12:58:42.895Z,70
2016-12-25T12:59:47.112Z,60
2016-12-25T13:00:52.376Z,65
2016-12-25T13:01:57.530Z,50
2016-12-25T13:03:01.833Z,50
2016-12-25T13:04:08.266Z,50
2016-12-25T13:05:14.395Z,50
2016-12-25T13:06:19.572Z,40
2016-12-25T13:07:25.739Z,45
2016-12-25T13:08:30.915Z,45
2016-12-25T13:09:35.193Z,50
2016-12-25T13:10:40.405Z,55
2016-12-25T13:11:44.666Z,55
2016-12-25T13:12:49.838Z,60
2016-12-25T13:13:56.015Z,50
2016-12-25T13:15:00.289Z,50
2016-12-25T13:16:04.541Z,50
2016-12-25T13:17:12.088Z,50
2016-12-25T13:18:17.260Z,45
2016-12-25T13:19:22.468Z,45
2016-12-25T13:20:26.686Z,45
2016-12-25T13:21:29.922Z,55
2016-12-25T13:22:35.223Z,45
2016-12-25T13:23:40.399Z,40
2016-12-25T13:24:44.628Z,45
2016-12-25T13:25:50.801Z,45
2016-12-25T13:26:56.004Z,40
2016-12-25T13:28:01.213Z,40
2016-12-25T13:29:06.382Z,35
2016-12-25T13:30:10.694Z,35
2016-12-25T13:31:16.873Z,40
2016-12-25T13:32:22.073Z,35
2016-12-25T13:33:27.269Z,40
2016-12-25T13:34:32.480Z,30
2016-12-25T13:35:37.656Z,30
2016-12-25T13:36:41.900Z,35
2016-12-25T13:37:47.073Z,30
2016-12-25T13:38:51.014Z,30
2016-12-25T13:39:55.273Z,35
2016-12-25T13:41:00.453Z,35
2016-12-25T13:42:05.628Z,35
2016-12-25T13:43:10.795Z,30
2016-12-25T13:44:15.994Z,30
2016-12-25T13:45:21.199Z,30
2016-12-25T13:46:27.481Z,35
2016-12-25T13:47:33.639Z,45
2016-12-25T13:48:38.808Z,40
2016-12-25T13:49:44.056Z,40
2016-12-25T13:50:50.223Z,40
2016-12-25T13:51:55.397Z,35
2016-12-25T13:53:00.590Z,35
2016-12-25T13:54:06.783Z,35
2016-12-25T13:55:11.998Z,35
2016-12-25T13:56:18.169Z,35
2016-12-25T13:57:23.379Z,35
2016-12-25T13:58:28.552Z,35
2016-12-25T13:59:33.760Z,30
2016-12-25T14:00:39.980Z,40
2016-12-25T14:01:45.188Z,30
2016-12-25T14:02:50.392Z,30
2016-12-25T14:03:56.572Z,30
2016-12-25T14:05:01.794Z,25
2016-12-25T14:06:07.005Z,30
2016-12-25T14:07:12.216Z,25
2016-12-25T14:08:18.439Z,20
2016-12-25T14:09:21.757Z,25
2016-12-25T14:10:27.238Z,20
2016-12-25T14:11:32.441Z,20
2016-12-25T14:12:37.646Z,20
2016-12-25T14:13:41.854Z,20
2016-12-25T14:14:48.034Z,20
2016-12-25T14:15:52.295Z,20
2016-12-25T14:16:57.464Z,20
2016-12-25T14:18:02.683Z,20
2016-12-25T14:19:07.230Z,20
2016-12-25T14:20:12.433Z,15
2016-12-25T14:21:18.600Z,15
2016-12-25T14:22:24.773Z,15
2016-12-25T14:23:30.946Z,15
2016-12-25T14:24:35.175Z,15
2016-12-25T14:26:46.516Z,15
2016-12-25T14:27:50.740Z,15
2016-12-25T14:28:53.017Z,15
2016-12-25T14:29:57.317Z,15
2016-12-25T14:31:02.520Z,10
2016-12-25T14:32:06.762Z,15
2016-12-25T14:33:12.926Z,15
2016-12-25T14:34:18.123Z,10
2016-12-25T14:35:24.367Z,10
2016-12-25T14:36:29.567Z,10
2016-12-25T14:37:34.778Z,10
2016-12-25T14:38:39.988Z,10
2016-12-25T14:39:45.189Z,10
2016-12-25T14:40:51.363Z,10
2016-12-25T14:41:56.572Z,10
2016-12-25T14:42:59.954Z,10
2016-12-25T14:44:05.155Z,10
2016-12-25T14:45:11.367Z,10
2016-12-25T14:46:23.815Z,15
2016-12-25T14:47:29.991Z,15
2016-12-25T14:48:35.232Z,10
2016-12-25T14:49:40.439Z,10
2016-12-25T14:50:45.639Z,10
2016-12-25T14:51:53.958Z,10
2016-12-25T14:52:59.184Z,10
2016-12-25T14:54:03.414Z,10
2016-12-25T14:55:08.617Z,10
2016-12-25T14:56:13.805Z,10
2016-12-25T14:57:19.980Z,10
2016-12-25T14:58:25.172Z,5
2016-12-25T14:59:30.378Z,10
2016-12-25T15:00:35.553Z,5
2016-12-25T15:01:41.731Z,5
2016-12-25T15:02:46.928Z,5
2016-12-25T15:03:51.147Z,5
2016-12-25T15:04:57.315Z,5
2016-12-25T15:06:02.523Z,5
2016-12-25T15:07:06.752Z,5
2016-12-25T15:08:11.966Z,5
2016-12-25T15:09:18.136Z,5
2016-12-25T15:10:23.343Z,5
2016-12-25T15:11:28.567Z,5
2016-12-25T15:12:33.777Z,5
2016-12-25T15:13:38.017Z,0
2016-12-25T15:14:44.184Z,0
2016-12-25T15:15:49.450Z,0
2016-12-25T15:16:55.627Z,0
2016-12-25T15:17:59.887Z,0
2016-12-25T15:19:05.062Z,0
2016-12-25T15:20:11.225Z,0
2016-12-25T15:21:16.403Z,0
2016-12-25T15:22:22.577Z,0
2016-12-25T15:23:28.759Z,0
2016-12-25T15:24:34.929Z,0
2016-12-25T15:25:41.107Z,0
2016-12-25T15:26:47.271Z,0
2016-12-25T15:27:53.438Z,0
2016-12-25T15:28:59.697Z,0
2016-12-25T15:30:05.859Z,0
2016-12-25T15:31:11.074Z,0
2016-12-25T15:32:58.855Z,0
2016-12-25T15:34:04.053Z,0
2016-12-25T15:35:10.281Z,0
2016-12-25T15:36:15.483Z,0
2016-12-25T15:37:21.713Z,0
2016-12-25T15:38:26.910Z,0
2016-12-25T15:39:31.138Z,0
2016-12-25T15:40:37.321Z,0
2016-12-25T15:41:42.499Z,0
2016-12-25T15:42:47.697Z,0
2016-12-25T15:43:52.871Z,0
2016-12-25T15:44:57.102Z,0
2016-12-25T15:46:02.304Z,0
2016-12-25T15:47:08.471Z,0
2016-12-25T15:48:12.719Z,0
2016-12-25T15:49:18.886Z,0
2016-12-25T15:50:23.203Z,0
2016-12-25T15:51:29.371Z,0
2016-12-25T15:52:35.543Z,0
2016-12-25T15:53:41.716Z,0
2016-12-25T15:54:46.954Z,0
2016-12-25T15:55:53.187Z,0
2016-12-25T15:57:05.596Z,0
2016-12-25T15:58:10.828Z,0
2016-12-25T15:59:14.119Z,0
2016-12-25T16:00:19.291Z,0
2016-12-25T16:01:23.503Z,0
2016-12-25T16:02:28.757Z,0
2016-12-25T16:03:34.921Z,0
2016-12-25T16:04:41.081Z,0
2016-12-25T16:05:46.397Z,0
2016-12-25T16:06:51.595Z,0